Main page
METAR-TAF:

METAR-TAF

Airports :

Larnaca, Cyprus

Larnaca International Airport

latitude: 34-53N, longitude: 033-38E, elevation: 2 m

Current weather observation

The report was made 32 minutes ago, at 20:30 UTC
Wind 3 kt from the North/Northwest
Temperature 10°C
Humidity 93%
Pressure 1022 hPa
Visibility 10 km or more
Few clouds at a height of 2500 ft
Scattered clouds at a height of 4000 ft

METAR: LCLK 202030Z 33003KT 9999 FEW025 SCT040 10/09 Q1022 NOSIG

Time: 23:02 (21:02 UTC)

Forecast

The report was made 3 hours and 32 minutes ago, at 17:30 UTC
Forecast valid from 20 at 18 UTC to 21 at 18 UTC
Wind 6 kt from the Northwest
Visibility 10 km or more
Few clouds at a height of 2500 ft
Becoming
from 21 at 08 UTC to 21 at 12 UTC
Wind 12 kt from the East/Southeast

TAF: LCLK 201730Z 2018/2118 32006KT 9999 FEW025 BECMG 2108/2112 12012KT

Weather observations and forecasts of more than 4000 airports (METAR and TAF reports).

The available stations are represented by yellow and red dots on the map.

Hover mouse over dot to see the name of the station.

Then click to see weather observations and forecasts.

To change the map : click on the green buttons with a black cross to zoom in, on the green button with a dash to zoom out, or on the green arrows for adjacent maps.


METAR-TAF: